Time;durP1;ratioP1;P1;durP2;ratioP2;P2;SDS_P1;SDS_P2;PMS_P1;PMS_P2;Temp;Humidity;BMP_temperature;BMP_pressure;BME280_temperature;BME280_humidity;BME280_pressure;Samples;Min_cycle;Max_cycle;Signal;HPM_P1;HPM_P2
2022/12/19 00:01:04;;;;;;;65.45;33.15;;;0.30;99.90;;;;;;5075788;28;20646;-82
2022/12/19 00:03:29;;;;;;;61.05;32.88;;;0.30;99.90;;;;;;5082756;28;20537;-82
2022/12/19 00:05:55;;;;;;;61.25;33.15;;;0.30;99.90;;;;;;5082588;28;20095;-83
2022/12/19 00:08:21;;;;;;;55.28;28.60;;;0.30;99.90;;;;;;5061828;28;20488;-82
2022/12/19 00:10:58;;;;;;;56.72;31.00;;;0.30;99.90;;;;;;5081988;28;20481;-84
2022/12/19 00:13:25;;;;;;;58.40;31.88;;;0.30;99.90;;;;;;5069192;28;20028;-82
2022/12/19 00:15:51;;;;;;;58.05;32.28;;;0.30;99.90;;;;;;5068613;28;20031;-83
2022/12/19 00:18:17;;;;;;;61.05;32.97;;;0.30;99.90;;;;;;5076740;28;20043;-81
2022/12/19 00:20:43;;;;;;;62.75;31.90;;;0.30;99.90;;;;;;5076778;28;20030;-81
2022/12/19 00:23:09;;;;;;;63.22;33.22;;;0.30;99.90;;;;;;5060725;28;20032;-82
2022/12/19 00:25:34;;;;;;;68.28;35.38;;;0.40;99.90;;;;;;5066668;28;20488;-82
2022/12/19 00:28:00;;;;;;;62.55;33.90;;;0.40;99.90;;;;;;5059733;28;20047;-82
2022/12/19 00:30:25;;;;;;;66.75;34.30;;;0.40;99.90;;;;;;5069096;28;20115;-82
2022/12/19 00:32:51;;;;;;;61.50;32.65;;;0.40;99.90;;;;;;5087035;28;20036;-82
2022/12/19 00:35:16;;;;;;;62.83;32.70;;;0.40;99.90;;;;;;5058018;28;20031;-82
2022/12/19 00:37:42;;;;;;;68.28;35.13;;;0.40;99.90;;;;;;5058151;28;20036;-81
2022/12/19 00:40:08;;;;;;;68.63;35.67;;;0.40;99.90;;;;;;5060935;28;20042;-82
2022/12/19 00:42:34;;;;;;;70.18;38.58;;;0.40;99.90;;;;;;5059248;28;20093;-83
2022/12/19 00:44:59;;;;;;;69.03;35.22;;;0.40;99.90;;;;;;5057790;28;20474;-83
2022/12/19 00:47:25;;;;;;;75.55;38.95;;;0.40;99.90;;;;;;5076587;28;20067;-83
2022/12/19 00:49:51;;;;;;;68.30;35.60;;;0.40;99.90;;;;;;5058019;28;20133;-82
2022/12/19 00:52:16;;;;;;;62.42;31.23;;;0.40;99.90;;;;;;5060908;28;20090;-84
2022/12/19 00:54:42;;;;;;;62.42;33.85;;;0.40;99.90;;;;;;5058229;28;20035;-83
2022/12/19 00:57:07;;;;;;;68.60;35.45;;;0.40;99.90;;;;;;5075736;28;20104;-84
2022/12/19 00:59:33;;;;;;;67.97;35.25;;;0.40;99.90;;;;;;5086416;28;20385;-85
2022/12/19 01:01:58;;;;;;;73.50;38.30;;;0.40;99.90;;;;;;5086174;28;20067;-83
2022/12/19 01:04:25;;;;;;;83.15;41.75;;;0.40;99.90;;;;;;5060648;28;20391;-82
2022/12/19 01:06:51;;;;;;;70.05;36.00;;;0.40;99.90;;;;;;5079826;28;20082;-82
2022/12/19 01:09:17;;;;;;;67.97;34.47;;;0.40;99.90;;;;;;5086797;28;20560;-83
2022/12/19 01:14:27;;;;;;;71.05;37.63;;;0.40;99.90;;;;;;5073359;28;20055;-81
2022/12/19 01:16:53;;;;;;;60.80;32.47;;;0.40;99.90;;;;;;5086489;28;20450;-80
2022/12/19 01:19:19;;;;;;;73.60;37.38;;;0.50;99.90;;;;;;5086949;28;20375;-83
2022/12/19 01:21:45;;;;;;;66.57;34.97;;;0.40;99.90;;;;;;5075068;28;20105;-83
2022/12/19 01:24:10;;;;;;;61.15;32.58;;;0.50;99.90;;;;;;5078847;28;20461;-81
2022/12/19 01:26:36;;;;;;;60.22;34.55;;;0.50;99.90;;;;;;5075117;28;20385;-82
2022/12/19 01:29:03;;;;;;;66.03;34.80;;;0.50;99.90;;;;;;5076969;28;20028;-82
2022/12/19 01:31:28;;;;;;;61.88;32.88;;;0.50;99.90;;;;;;5067654;28;20040;-82
2022/12/19 01:33:54;;;;;;;60.25;31.58;;;0.50;99.90;;;;;;5078555;28;20090;-80
2022/12/19 01:36:20;;;;;;;61.33;31.73;;;0.50;99.90;;;;;;5084953;28;20363;-81
2022/12/19 01:38:45;;;;;;;68.70;36.53;;;0.50;99.90;;;;;;5084214;28;20112;-81
2022/12/19 01:41:11;;;;;;;61.22;32.80;;;0.60;99.90;;;;;;5085760;28;20016;-81
2022/12/19 01:43:58;;;;;;;57.42;30.60;;;0.60;99.90;;;;;;5085872;28;20445;-80
2022/12/19 01:46:34;;;;;;;56.05;29.92;;;0.70;99.90;;;;;;5066204;28;20504;-81
2022/12/19 01:49:00;;;;;;;63.85;31.80;;;0.70;99.90;;;;;;5068888;28;20031;-82
2022/12/19 01:51:36;;;;;;;62.90;33.75;;;0.70;99.90;;;;;;5084034;28;20127;-82
2022/12/19 01:54:05;;;;;;;78.07;38.67;;;0.70;99.90;;;;;;5067469;28;20367;-81
2022/12/19 01:56:35;;;;;;;60.20;33.08;;;0.80;99.90;;;;;;5084476;28;20028;-82
2022/12/19 01:59:06;;;;;;;58.08;31.65;;;0.90;99.90;;;;;;5084684;28;20020;-81
2022/12/19 02:01:33;;;;;;;55.92;31.33;;;0.90;99.90;;;;;;5084358;28;20160;-81
2022/12/19 02:04:00;;;;;;;54.72;29.77;;;1.00;99.90;;;;;;5061602;28;20016;-80
2022/12/19 02:06:26;;;;;;;55.05;28.98;;;1.10;99.90;;;;;;5085289;28;20013;-82
2022/12/19 02:08:52;;;;;;;49.38;25.98;;;1.10;99.90;;;;;;5062711;28;20074;-80
2022/12/19 02:11:18;;;;;;;58.30;32.17;;;1.10;99.90;;;;;;5082468;28;20508;-82
2022/12/19 02:13:44;;;;;;;56.33;31.15;;;1.20;99.90;;;;;;5081590;28;20021;-81
2022/12/19 02:16:25;;;;;;;67.13;34.15;;;1.20;99.90;;;;;;5083392;28;20038;-79
2022/12/19 02:19:19;;;;;;;55.30;29.65;;;1.30;99.90;;;;;;5070283;28;20477;-81
2022/12/19 02:21:47;;;;;;;64.43;32.95;;;1.30;99.90;;;;;;5035158;28;20036;-81
2022/12/19 02:24:26;;;;;;;63.22;34.10;;;1.30;99.90;;;;;;5083378;28;20095;-81
2022/12/19 02:27:20;;;;;;;59.63;31.58;;;1.40;99.90;;;;;;5082828;28;20027;-82
2022/12/19 02:30:09;;;;;;;55.83;29.33;;;1.40;99.90;;;;;;5065621;28;20123;-82
2022/12/19 02:33:02;;;;;;;68.00;34.15;;;1.40;99.90;;;;;;5062964;28;20544;-83
2022/12/19 02:35:50;;;;;;;75.57;37.03;;;1.50;99.90;;;;;;5078088;28;20031;-81
2022/12/19 02:38:28;;;;;;;57.65;30.45;;;1.60;99.90;;;;;;5082725;28;20017;-82
2022/12/19 02:41:06;;;;;;;53.85;28.42;;;1.70;99.90;;;;;;5080403;28;20052;-81
2022/12/19 02:43:37;;;;;;;66.90;33.75;;;1.80;99.90;;;;;;5079390;28;20043;-83
2022/12/19 02:46:05;;;;;;;58.38;31.30;;;1.90;99.90;;;;;;5082518;28;20028;-81
2022/12/19 02:48:31;;;;;;;48.83;26.73;;;2.00;99.90;;;;;;5082003;28;20046;-82
2022/12/19 02:50:57;;;;;;;51.42;27.63;;;2.00;99.90;;;;;;5085776;28;20043;-80
2022/12/19 02:53:22;;;;;;;51.08;25.92;;;2.00;99.90;;;;;;5074015;28;20065;-82
2022/12/19 02:56:13;;;;;;;65.47;32.67;;;2.00;99.90;;;;;;5072894;28;20028;-82
2022/12/19 02:58:50;;;;;;;56.90;28.42;;;2.10;99.90;;;;;;5073139;28;20034;-80
2022/12/19 03:01:28;;;;;;;53.85;28.85;;;2.10;99.90;;;;;;5092262;28;20026;-81
2022/12/19 03:04:12;;;;;;;46.28;24.55;;;2.10;99.90;;;;;;5092425;28;20474;-82
2022/12/19 03:06:42;;;;;;;58.25;29.05;;;2.10;99.90;;;;;;5092225;28;20035;-82
2022/12/19 03:09:22;;;;;;;61.55;30.90;;;2.10;99.90;;;;;;5092946;28;20020;-83
2022/12/19 03:11:55;;;;;;;58.25;30.85;;;2.20;99.90;;;;;;5092897;28;20024;-81
2022/12/19 03:14:22;;;;;;;66.20;33.40;;;2.30;99.90;;;;;;5074829;28;20031;-82
2022/12/19 03:16:48;;;;;;;62.28;32.60;;;2.30;99.90;;;;;;5092870;28;20036;-82
2022/12/19 03:19:15;;;;;;;64.22;33.13;;;2.40;99.90;;;;;;5074607;28;20349;-83
2022/12/19 03:21:47;;;;;;;58.28;31.25;;;2.40;99.90;;;;;;5074690;28;20028;-81
2022/12/19 03:24:13;;;;;;;56.10;29.85;;;2.40;99.90;;;;;;5092668;28;20024;-82
2022/12/19 03:27:11;;;;;;;73.13;36.85;;;2.40;99.90;;;;;;5073750;28;20051;-81
2022/12/19 03:29:39;;;;;;;52.13;27.83;;;2.40;99.90;;;;;;5074147;28;20040;-82
2022/12/19 03:32:09;;;;;;;53.63;28.30;;;2.40;99.90;;;;;;5074373;28;20016;-80
2022/12/19 03:34:49;;;;;;;47.17;26.77;;;2.30;99.90;;;;;;5074628;28;20046;-82
2022/12/19 03:37:19;;;;;;;47.80;25.88;;;2.40;99.90;;;;;;5074290;28;20061;-82
2022/12/19 03:39:53;;;;;;;50.05;27.17;;;2.40;99.90;;;;;;5092626;28;20035;-81
2022/12/19 03:45:06;;;;;;;52.90;27.02;;;2.40;99.90;;;;;;5092241;28;20043;-81
2022/12/19 03:47:45;;;;;;;52.55;25.90;;;2.50;99.90;;;;;;5092409;28;20020;-81
2022/12/19 03:50:11;;;;;;;51.95;27.80;;;2.50;99.90;;;;;;5073860;28;20092;-81
2022/12/19 03:53:07;;;;;;;47.45;26.35;;;2.50;99.90;;;;;;5092381;28;20028;-80
2022/12/19 03:55:58;;;;;;;47.45;25.10;;;2.60;99.90;;;;;;5074294;28;20028;-80
2022/12/19 03:58:33;;;;;;;41.28;22.55;;;2.60;99.90;;;;;;5074212;28;20066;-81
2022/12/19 04:01:00;;;;;;;40.33;21.63;;;2.60;99.90;;;;;;5092410;28;20078;-80
2022/12/19 04:03:28;;;;;;;38.28;20.40;;;2.70;99.90;;;;;;5074314;28;20024;-81
2022/12/19 04:05:56;;;;;;;49.35;24.15;;;2.70;99.90;;;;;;5092299;28;20258;-80
2022/12/19 04:08:22;;;;;;;50.28;27.90;;;2.70;99.90;;;;;;5092276;28;20031;-81
2022/12/19 04:10:54;;;;;;;41.45;23.83;;;2.80;99.90;;;;;;5074035;28;20028;-82
2022/12/19 04:13:25;;;;;;;53.30;28.55;;;2.80;99.90;;;;;;5074115;28;20531;-81
2022/12/19 04:16:28;;;;;;;46.65;25.25;;;2.90;99.90;;;;;;5074148;28;20076;-81
2022/12/19 04:19:20;;;;;;;37.60;21.27;;;3.00;99.90;;;;;;5073639;28;20028;-80
2022/12/19 04:21:52;;;;;;;41.15;23.38;;;3.00;99.90;;;;;;5074216;28;20028;-81
2022/12/19 04:24:28;;;;;;;51.38;28.27;;;3.00;99.90;;;;;;5092161;28;20466;-80
2022/12/19 04:26:57;;;;;;;42.38;23.85;;;3.10;99.90;;;;;;5074074;28;20078;-80
2022/12/19 04:29:25;;;;;;;49.22;27.45;;;3.10;99.90;;;;;;5074282;28;20017;-82
2022/12/19 04:31:51;;;;;;;43.15;25.20;;;3.10;99.90;;;;;;5092073;28;20051;-80
2022/12/19 04:34:19;;;;;;;45.30;25.02;;;3.10;99.90;;;;;;5091933;28;20012;-80
2022/12/19 04:36:45;;;;;;;40.78;23.98;;;3.20;99.90;;;;;;5090891;28;20028;-80
2022/12/19 04:39:11;;;;;;;46.65;24.83;;;3.30;99.90;;;;;;5092048;28;20044;-81
2022/12/19 04:41:37;;;;;;;37.38;21.45;;;3.30;99.90;;;;;;5091949;28;20170;-81
2022/12/19 04:44:02;;;;;;;35.15;20.98;;;3.40;99.90;;;;;;5091931;28;20123;-81
2022/12/19 04:46:28;;;;;;;30.60;19.00;;;3.40;99.90;;;;;;5091892;28;20051;-80
2022/12/19 04:48:54;;;;;;;32.22;20.27;;;3.40;99.90;;;;;;5091590;28;20032;-81
2022/12/19 04:51:19;;;;;;;33.72;19.20;;;3.40;99.90;;;;;;5091646;28;20041;-80
2022/12/19 04:53:45;;;;;;;40.80;24.40;;;3.50;99.90;;;;;;5073642;28;20042;-80
2022/12/19 04:56:10;;;;;;;36.85;21.33;;;3.50;99.90;;;;;;5091730;28;20028;-80
2022/12/19 04:58:36;;;;;;;35.13;21.67;;;3.50;99.90;;;;;;5094542;28;20020;-80
2022/12/19 05:01:04;;;;;;;35.10;21.40;;;3.60;99.90;;;;;;5095387;28;20088;-81
2022/12/19 05:03:30;;;;;;;32.85;19.90;;;3.60;99.90;;;;;;5077135;28;20492;-81
2022/12/19 05:06:04;;;;;;;39.92;24.00;;;3.60;99.90;;;;;;5076963;28;20021;-80
2022/12/19 05:08:29;;;;;;;31.77;19.80;;;3.60;99.90;;;;;;5095366;28;20028;-80
2022/12/19 05:10:59;;;;;;;35.08;20.98;;;3.70;99.90;;;;;;5095113;28;20099;-81
2022/12/19 05:13:25;;;;;;;40.13;22.05;;;3.70;99.90;;;;;;5077451;28;20040;-81
2022/12/19 05:15:58;;;;;;;29.08;17.98;;;3.70;99.90;;;;;;5095171;28;20154;-81
2022/12/19 05:18:25;;;;;;;37.03;22.85;;;3.70;99.90;;;;;;5095149;28;20416;-81
2022/12/19 05:20:51;;;;;;;41.20;24.98;;;3.70;99.90;;;;;;5095335;28;20398;-81
2022/12/19 05:23:16;;;;;;;39.50;23.50;;;3.70;99.90;;;;;;5095103;28;20024;-80
2022/12/19 05:25:42;;;;;;;37.22;21.42;;;3.70;99.90;;;;;;5094838;28;20035;-81
2022/12/19 05:28:08;;;;;;;35.58;20.75;;;3.80;99.90;;;;;;5095003;28;20050;-81
2022/12/19 05:30:33;;;;;;;36.30;21.88;;;3.70;99.90;;;;;;5094745;28;20036;-81
2022/12/19 05:32:59;;;;;;;38.92;23.52;;;3.70;99.90;;;;;;5076745;28;20557;-81
2022/12/19 05:35:24;;;;;;;32.67;19.05;;;3.80;99.90;;;;;;5076653;28;20107;-81
2022/12/19 05:37:50;;;;;;;29.00;18.30;;;3.80;99.90;;;;;;5094689;28;20020;-81
2022/12/19 05:40:16;;;;;;;23.85;15.50;;;3.80;99.90;;;;;;5076533;28;20035;-81
2022/12/19 05:42:41;;;;;;;27.83;18.23;;;3.80;99.90;;;;;;5073945;28;20039;-82
2022/12/19 05:45:07;;;;;;;32.67;19.90;;;3.80;99.90;;;;;;5091999;28;20028;-82
2022/12/19 05:47:33;;;;;;;28.77;18.10;;;3.80;99.90;;;;;;5083007;28;20426;-82
2022/12/19 05:49:58;;;;;;;30.05;17.40;;;3.90;99.90;;;;;;5063819;28;20044;-82
2022/12/19 05:52:24;;;;;;;26.40;17.23;;;3.90;99.90;;;;;;5081554;28;20127;-81
2022/12/19 05:54:50;;;;;;;26.80;16.63;;;3.90;99.90;;;;;;5087819;28;20069;-81
2022/12/19 05:57:15;;;;;;;25.38;17.10;;;4.00;99.90;;;;;;5086524;28;20461;-80
2022/12/19 05:59:41;;;;;;;25.83;16.85;;;3.90;99.90;;;;;;5091227;28;20047;-82
2022/12/19 06:02:07;;;;;;;25.00;16.27;;;3.90;99.90;;;;;;5073489;28;20047;-81
2022/12/19 06:04:33;;;;;;;23.45;15.43;;;3.90;99.90;;;;;;5091831;28;20481;-81
2022/12/19 06:06:58;;;;;;;21.83;14.02;;;3.90;99.90;;;;;;5091415;28;20030;-81
2022/12/19 06:09:24;;;;;;;26.38;15.57;;;3.90;99.90;;;;;;5092102;28;20020;-82
2022/12/19 06:11:50;;;;;;;19.40;12.68;;;4.00;99.90;;;;;;5091477;28;20119;-82
2022/12/19 06:14:16;;;;;;;20.02;12.45;;;4.00;99.90;;;;;;5068555;28;20034;-82
2022/12/19 06:16:41;;;;;;;19.27;12.60;;;4.00;99.90;;;;;;5063020;28;20024;-82
2022/12/19 06:19:07;;;;;;;23.35;14.55;;;4.10;99.90;;;;;;5061556;28;20027;-82
2022/12/19 06:21:32;;;;;;;23.40;15.00;;;4.10;99.90;;;;;;5075694;28;20021;-82
2022/12/19 06:23:58;;;;;;;21.90;14.10;;;4.10;99.90;;;;;;5074353;28;20071;-82
2022/12/19 06:26:24;;;;;;;21.95;14.90;;;4.20;99.90;;;;;;5082235;28;20056;-82
2022/12/19 06:28:51;;;;;;;19.33;13.32;;;4.20;99.90;;;;;;5078107;28;20266;-81
2022/12/19 06:31:18;;;;;;;21.55;14.88;;;4.30;99.90;;;;;;5070620;28;20441;-81
2022/12/19 06:33:44;;;;;;;24.77;15.23;;;4.30;99.90;;;;;;5079354;28;20035;-81
2022/12/19 06:36:18;;;;;;;21.63;12.95;;;4.40;99.90;;;;;;5083652;28;20021;-81
2022/12/19 06:38:43;;;;;;;24.23;16.70;;;4.40;99.90;;;;;;5072666;28;20023;-81
2022/12/19 06:44:00;;;;;;;23.52;15.57;;;4.60;99.90;;;;;;5086510;28;20078;-82
2022/12/19 06:46:26;;;;;;;21.67;13.73;;;4.60;99.90;;;;;;5076264;28;20113;-81
2022/12/19 06:48:52;;;;;;;19.65;13.02;;;4.70;99.90;;;;;;5087669;28;20063;-81
2022/12/19 06:51:18;;;;;;;21.55;14.80;;;4.70;99.90;;;;;;5062872;28;20048;-81
2022/12/19 06:53:44;;;;;;;20.42;14.00;;;4.70;99.90;;;;;;5062502;28;20492;-81
2022/12/19 06:56:12;;;;;;;23.45;15.73;;;4.70;99.90;;;;;;5088389;28;20103;-81
2022/12/19 06:58:38;;;;;;;21.98;13.93;;;4.80;99.90;;;;;;5072507;28;20082;-81
2022/12/19 07:01:04;;;;;;;17.95;12.38;;;4.90;99.90;;;;;;5054560;28;20025;-81
2022/12/19 07:03:35;;;;;;;16.77;11.50;;;5.00;99.90;;;;;;5082571;28;20022;-81
2022/12/19 07:06:01;;;;;;;17.08;11.38;;;5.00;99.90;;;;;;5059108;28;20031;-81
2022/12/19 07:08:28;;;;;;;13.90;9.65;;;5.00;99.90;;;;;;5073763;28;20017;-81
2022/12/19 07:10:54;;;;;;;15.10;10.13;;;5.10;99.90;;;;;;5068999;28;20263;-82
2022/12/19 07:13:21;;;;;;;14.52;9.82;;;5.10;99.90;;;;;;5077949;28;20099;-80
2022/12/19 07:15:47;;;;;;;16.15;9.85;;;5.20;99.90;;;;;;5071937;28;20029;-81
2022/12/19 07:18:13;;;;;;;17.13;11.32;;;5.30;99.90;;;;;;5088344;28;20016;-82
2022/12/19 07:20:41;;;;;;;14.77;9.70;;;5.30;99.90;;;;;;5056934;28;20156;-82
2022/12/19 07:23:09;;;;;;;11.95;8.23;;;5.40;99.90;;;;;;5067151;28;20024;-81
2022/12/19 07:25:36;;;;;;;16.40;10.40;;;5.40;99.90;;;;;;5064509;28;20396;-82
2022/12/19 07:28:02;;;;;;;14.25;10.27;;;5.40;99.90;;;;;;5077485;28;20421;-82
2022/12/19 07:30:28;;;;;;;13.00;9.10;;;5.40;99.90;;;;;;5069641;28;20027;-82
2022/12/19 07:32:53;;;;;;;15.65;9.90;;;5.50;99.90;;;;;;5053800;28;20131;-81
2022/12/19 07:35:21;;;;;;;14.50;8.82;;;5.50;99.90;;;;;;5080563;28;20021;-82
2022/12/19 07:37:46;;;;;;;10.95;7.68;;;5.50;99.90;;;;;;5061085;28;20024;-81
2022/12/19 07:40:12;;;;;;;15.65;10.32;;;5.60;99.90;;;;;;5071912;28;20481;-82
2022/12/19 07:42:37;;;;;;;12.85;8.55;;;5.60;99.90;;;;;;5070054;28;20020;-82
2022/12/19 07:45:04;;;;;;;14.73;8.38;;;5.60;99.90;;;;;;5077656;28;20016;-82
2022/12/19 07:47:29;;;;;;;10.68;7.10;;;5.70;99.90;;;;;;5090509;28;20103;-81
2022/12/19 07:49:55;;;;;;;10.25;7.05;;;5.70;99.90;;;;;;5071330;28;20128;-81
2022/12/19 07:52:20;;;;;;;12.20;7.57;;;5.70;99.90;;;;;;5088290;28;20024;-82
2022/12/19 07:54:46;;;;;;;19.55;10.13;;;5.80;99.90;;;;;;5075736;28;20044;-81
2022/12/19 07:57:11;;;;;;;10.88;7.32;;;5.80;99.90;;;;;;5080069;28;20025;-81
2022/12/19 07:59:37;;;;;;;12.05;7.60;;;5.90;99.90;;;;;;5082574;28;20024;-81
2022/12/19 08:02:03;;;;;;;14.10;8.10;;;5.90;99.90;;;;;;5076643;28;20060;-81
2022/12/19 08:04:28;;;;;;;11.23;7.65;;;5.90;99.90;;;;;;5069885;28;20048;-83
2022/12/19 08:06:54;;;;;;;12.98;9.05;;;6.00;99.90;;;;;;5058623;28;20091;-81
2022/12/19 08:09:19;;;;;;;12.20;7.93;;;6.10;99.90;;;;;;5064434;28;20016;-82
2022/12/19 08:11:45;;;;;;;11.35;7.40;;;6.20;99.90;;;;;;5083681;28;20036;-82
2022/12/19 08:14:10;;;;;;;12.43;7.60;;;6.20;99.90;;;;;;5086204;28;20052;-81
2022/12/19 08:16:36;;;;;;;10.57;7.78;;;6.30;99.90;;;;;;5090800;28;20074;-82
2022/12/19 08:19:02;;;;;;;12.85;8.27;;;6.40;99.90;;;;;;5066708;28;20063;-82
2022/12/19 08:21:29;;;;;;;15.38;11.02;;;6.40;99.90;;;;;;5080581;28;20029;-81
2022/12/19 08:23:55;;;;;;;13.15;8.65;;;6.50;99.90;;;;;;5076878;28;20024;-82
2022/12/19 08:26:24;;;;;;;11.57;8.43;;;6.50;99.90;;;;;;5068819;28;20039;-82
2022/12/19 08:28:54;;;;;;;11.18;8.27;;;6.60;99.90;;;;;;5057189;28;20013;-81
2022/12/19 08:31:23;;;;;;;12.18;7.95;;;6.60;99.90;;;;;;5081888;28;20028;-82
2022/12/19 08:33:49;;;;;;;11.32;8.13;;;6.60;99.90;;;;;;5069063;28;20363;-82
2022/12/19 08:36:17;;;;;;;13.20;9.10;;;6.70;99.90;;;;;;5060053;28;20017;-82
2022/12/19 08:38:43;;;;;;;13.90;8.30;;;6.60;99.90;;;;;;5073747;28;20023;-82
2022/12/19 08:41:09;;;;;;;10.85;7.88;;;6.60;99.90;;;;;;5086165;28;20020;-82
2022/12/19 08:43:34;;;;;;;11.15;7.57;;;6.60;99.90;;;;;;5064077;28;20443;-82
2022/12/19 08:46:00;;;;;;;11.38;6.55;;;6.60;99.90;;;;;;5089194;28;20124;-82
2022/12/19 08:48:26;;;;;;;10.18;6.40;;;6.60;99.90;;;;;;5093069;28;20097;-82
2022/12/19 08:50:55;;;;;;;12.75;8.13;;;6.70;99.90;;;;;;5061269;28;20048;-82
2022/12/19 08:53:23;;;;;;;12.10;7.88;;;6.70;99.90;;;;;;5085923;28;20021;-81
2022/12/19 08:56:00;;;;;;;9.52;7.13;;;6.70;99.90;;;;;;5086950;28;20089;-81
2022/12/19 08:58:27;;;;;;;12.63;8.07;;;6.70;99.90;;;;;;5075643;28;20033;-81
2022/12/19 09:00:54;;;;;;;13.50;8.85;;;6.70;99.90;;;;;;5079498;28;20020;-82
2022/12/19 09:03:21;;;;;;;12.52;8.25;;;6.70;99.90;;;;;;5084653;28;20024;-84
2022/12/19 09:06:01;;;;;;;11.35;7.45;;;6.70;99.90;;;;;;5086616;28;20032;-82
2022/12/19 09:08:27;;;;;;;11.50;8.02;;;6.70;99.90;;;;;;5077712;28;20099;-82
2022/12/19 09:11:08;;;;;;;11.35;7.32;;;6.70;99.90;;;;;;5089332;28;20040;-83
2022/12/19 09:13:34;;;;;;;9.80;7.20;;;6.70;99.90;;;;;;5062290;28;20095;-82
2022/12/19 09:16:06;;;;;;;13.27;8.20;;;6.80;99.90;;;;;;5072551;28;20058;-82
2022/12/19 09:18:32;;;;;;;12.25;8.18;;;6.80;99.90;;;;;;5059451;28;20024;-82
2022/12/19 09:20:58;;;;;;;12.13;7.53;;;6.70;99.90;;;;;;5092354;28;20032;-83
2022/12/19 09:23:28;;;;;;;11.75;7.63;;;6.80;99.90;;;;;;5084613;28;20020;-83
2022/12/19 09:25:55;;;;;;;11.18;6.88;;;6.80;99.90;;;;;;5066007;28;20024;-82
2022/12/19 09:28:21;;;;;;;12.75;7.65;;;6.80;99.90;;;;;;5083441;28;20052;-83
2022/12/19 09:30:58;;;;;;;11.80;7.57;;;6.80;99.90;;;;;;5086769;28;20070;-83
2022/12/19 09:33:24;;;;;;;12.02;8.35;;;6.80;99.90;;;;;;5081707;28;20024;-83
2022/12/19 09:35:55;;;;;;;10.68;8.00;;;6.80;99.90;;;;;;5068403;28;20289;-83
2022/12/19 09:38:22;;;;;;;10.10;7.43;;;6.80;99.90;;;;;;5076791;28;20094;-83
2022/12/19 09:40:57;;;;;;;9.77;7.00;;;6.80;99.90;;;;;;5071481;28;20078;-83
2022/12/19 09:43:57;;;;;;;9.55;7.28;;;6.80;99.90;;;;;;5064443;28;20024;-82
2022/12/19 09:46:47;;;;;;;12.13;7.28;;;6.80;99.90;;;;;;5092457;28;20107;-83
2022/12/19 09:49:17;;;;;;;8.95;6.90;;;6.90;99.90;;;;;;5085674;28;20068;-83
2022/12/19 09:51:57;;;;;;;10.90;6.85;;;6.90;99.90;;;;;;5067454;28;20117;-83
2022/12/19 09:54:32;;;;;;;10.88;7.32;;;6.90;99.90;;;;;;5058681;28;20382;-82
2022/12/19 09:57:04;;;;;;;10.13;6.55;;;6.90;99.90;;;;;;5087244;28;20017;-82
2022/12/19 09:59:44;;;;;;;12.38;7.68;;;6.90;99.90;;;;;;5083080;28;20024;-82
2022/12/19 10:02:33;;;;;;;12.13;6.72;;;6.90;99.90;;;;;;5059466;28;20121;-82
2022/12/19 10:05:29;;;;;;;12.27;8.27;;;6.90;99.90;;;;;;5061070;28;20017;-82
2022/12/19 10:07:54;;;;;;;11.95;7.95;;;7.00;99.90;;;;;;5051392;28;20483;-82
2022/12/19 10:10:30;;;;;;;11.75;6.50;;;7.00;99.90;;;;;;5089634;28;20044;-82
2022/12/19 10:12:55;;;;;;;11.25;7.55;;;7.10;99.90;;;;;;5072915;28;20027;-81
2022/12/19 10:15:40;;;;;;;9.90;6.40;;;7.10;99.90;;;;;;5073052;28;20037;-81
2022/12/19 10:18:33;;;;;;;12.77;8.30;;;7.10;99.90;;;;;;5069292;28;20028;-82
2022/12/19 10:21:05;;;;;;;11.48;7.95;;;7.10;99.90;;;;;;5060853;28;20016;-82
2022/12/19 10:23:56;;;;;;;9.60;6.75;;;7.20;99.90;;;;;;5082347;28;20068;-82
2022/12/19 10:26:35;;;;;;;12.60;8.98;;;7.20;99.90;;;;;;5063719;28;20067;-83
2022/12/19 10:29:34;;;;;;;11.93;7.68;;;7.20;99.90;;;;;;5079032;28;20028;-81
2022/12/19 10:32:22;;;;;;;10.77;6.18;;;7.20;99.90;;;;;;5078422;28;20056;-81
2022/12/19 10:34:50;;;;;;;14.63;8.48;;;7.20;99.90;;;;;;5059343;28;20028;-81
2022/12/19 10:37:35;;;;;;;12.30;6.88;;;7.20;99.90;;;;;;5068495;28;20017;-80
2022/12/19 10:40:24;;;;;;;13.65;8.25;;;7.20;99.90;;;;;;5064156;28;20097;-82
2022/12/19 10:43:06;;;;;;;10.05;6.90;;;7.20;99.90;;;;;;5082590;28;20096;-82
2022/12/19 10:45:46;;;;;;;10.55;7.03;;;7.20;99.90;;;;;;5082035;28;20020;-82
2022/12/19 10:48:17;;;;;;;11.60;7.50;;;7.30;99.90;;;;;;5081782;28;20486;-81
2022/12/19 10:50:43;;;;;;;9.20;6.10;;;7.30;99.90;;;;;;5081151;28;20127;-81
2022/12/19 10:53:11;;;;;;;9.25;6.65;;;7.30;99.90;;;;;;5067001;28;20111;-82
2022/12/19 10:55:37;;;;;;;10.50;7.10;;;7.30;99.90;;;;;;5061855;28;20027;-81
2022/12/19 10:58:18;;;;;;;10.23;6.93;;;7.30;99.90;;;;;;5068389;28;20031;-82
2022/12/19 11:01:13;;;;;;;10.32;7.20;;;7.30;99.90;;;;;;5057884;28;20480;-83
2022/12/19 11:03:41;;;;;;;10.98;7.43;;;7.40;99.90;;;;;;5080668;28;20111;-83
2022/12/19 11:06:36;;;;;;;9.48;6.90;;;7.40;99.90;;;;;;5069184;28;20024;-83
2022/12/19 11:09:28;;;;;;;9.38;5.85;;;7.40;99.90;;;;;;5078204;28;20103;-82
2022/12/19 11:12:11;;;;;;;9.95;6.68;;;7.40;99.90;;;;;;5074058;28;20064;-84
2022/12/19 11:14:44;;;;;;;10.43;7.10;;;7.50;99.90;;;;;;5093282;28;20039;-83
2022/12/19 11:17:26;;;;;;;11.15;6.90;;;7.40;99.90;;;;;;5076112;28;20393;-84
2022/12/19 11:19:52;;;;;;;11.77;7.32;;;7.50;99.90;;;;;;5063007;28;20041;-83
2022/12/19 11:22:28;;;;;;;7.60;5.68;;;7.40;99.90;;;;;;5069524;28;20032;-84
2022/12/19 11:24:55;;;;;;;8.68;5.72;;;7.50;99.90;;;;;;5070626;28;20028;-84
2022/12/19 11:27:39;;;;;;;10.93;7.15;;;7.50;99.90;;;;;;5082540;28;20035;-84
2022/12/19 11:30:08;;;;;;;9.35;5.63;;;7.50;99.90;;;;;;5061833;28;20039;-83
2022/12/19 11:32:36;;;;;;;8.23;5.70;;;7.50;99.90;;;;;;5060403;28;20512;-82
2022/12/19 11:35:25;;;;;;;9.57;7.30;;;7.50;99.90;;;;;;5061272;28;20436;-83
2022/12/19 11:37:56;;;;;;;10.00;6.38;;;7.60;99.90;;;;;;5059394;28;20466;-82
2022/12/19 11:40:47;;;;;;;10.43;5.95;;;7.60;99.90;;;;;;5053467;28;20033;-83
2022/12/19 11:43:38;;;;;;;8.65;5.75;;;7.60;99.90;;;;;;5071511;28;20067;-82
2022/12/19 11:46:22;;;;;;;7.85;5.65;;;7.60;99.90;;;;;;5069262;28;20363;-83
2022/12/19 11:49:08;;;;;;;8.98;6.43;;;7.70;99.90;;;;;;5070870;28;20024;-82
2022/12/19 11:51:53;;;;;;;8.95;5.88;;;7.70;99.90;;;;;;5065820;28;20048;-82
2022/12/19 11:54:37;;;;;;;7.25;5.07;;;7.70;99.90;;;;;;5071886;28;20051;-81
2022/12/19 11:57:03;;;;;;;8.30;5.70;;;7.70;99.90;;;;;;5071223;28;20078;-82
2022/12/19 11:59:37;;;;;;;9.38;6.32;;;7.70;99.90;;;;;;5059019;28;20016;-81
2022/12/19 12:02:16;;;;;;;;;;;7.70;99.90;;;;;;5062426;28;20028;-81
2022/12/19 12:04:57;;;;;;;8.55;5.35;;;7.70;99.90;;;;;;5073031;28;20336;-82
2022/12/19 12:07:27;;;;;;;6.65;4.68;;;7.70;99.90;;;;;;5088516;28;20478;-82
2022/12/19 12:09:56;;;;;;;7.90;5.15;;;7.70;99.90;;;;;;5059195;28;20624;-82
2022/12/19 12:12:22;;;;;;;7.85;5.50;;;7.70;99.90;;;;;;5053556;28;20024;-82
2022/12/19 12:15:12;;;;;;;7.30;4.88;;;7.80;99.90;;;;;;5086661;28;20536;-83
2022/12/19 12:17:48;;;;;;;8.93;6.38;;;7.80;99.90;;;;;;5071743;28;20037;-83
2022/12/19 12:20:28;;;;;;;8.60;6.13;;;7.80;99.90;;;;;;5072427;28;20386;-82
2022/12/19 12:23:05;;;;;;;8.98;5.80;;;7.80;99.90;;;;;;5075096;28;20035;-83
2022/12/19 12:25:54;;;;;;;8.38;5.95;;;7.80;99.90;;;;;;5071356;28;20106;-83
2022/12/19 12:28:36;;;;;;;10.88;6.30;;;7.90;99.90;;;;;;5089164;28;20448;-83
2022/12/19 12:31:13;;;;;;;10.15;6.05;;;7.90;99.90;;;;;;5072319;28;20051;-82
2022/12/19 12:33:57;;;;;;;9.65;6.57;;;7.90;99.90;;;;;;5072876;28;20035;-83
2022/12/19 12:36:39;;;;;;;13.57;6.50;;;7.90;99.90;;;;;;5085703;28;20516;-83
2022/12/19 12:39:30;;;;;;;8.88;5.70;;;8.00;99.90;;;;;;5071341;28;20043;-82
2022/12/19 12:42:16;;;;;;;8.13;6.22;;;8.00;99.90;;;;;;5059219;28;20047;-83
2022/12/19 12:44:41;;;;;;;7.18;5.35;;;8.10;99.90;;;;;;5085463;28;20056;-84
2022/12/19 12:47:23;;;;;;;6.35;4.97;;;8.10;99.90;;;;;;5052623;28;20056;-83
2022/12/19 12:50:02;;;;;;;6.78;4.90;;;8.10;99.90;;;;;;5051992;28;20052;-82
2022/12/19 12:52:42;;;;;;;8.65;5.38;;;8.10;99.90;;;;;;5072284;28;20044;-82
2022/12/19 12:55:17;;;;;;;9.52;5.65;;;8.20;99.90;;;;;;5071472;28;20024;-83
2022/12/19 12:57:42;;;;;;;6.72;4.75;;;8.20;99.90;;;;;;5061933;28;20067;-82
2022/12/19 13:00:19;;;;;;;7.80;6.03;;;8.20;99.90;;;;;;5076007;28;20478;-82
2022/12/19 13:03:05;;;;;;;10.02;6.10;;;8.20;99.90;;;;;;5069596;28;20112;-84
2022/12/19 13:05:34;;;;;;;9.77;6.30;;;8.30;99.90;;;;;;5070298;28;20036;-83
2022/12/19 13:08:01;;;;;;;9.18;6.20;;;8.30;99.90;;;;;;5089066;28;20480;-85
2022/12/19 13:10:54;;;;;;;10.95;7.22;;;8.40;99.90;;;;;;5067863;28;20039;-82
2022/12/19 13:13:53;;;;;;;10.13;5.45;;;8.50;99.90;;;;;;5069413;28;20076;-83